Time;durP1;ratioP1;P1;durP2;ratioP2;P2;SDS_P1;SDS_P2;PMS_P1;PMS_P2;Temp;Humidity;BMP_temperature;BMP_pressure;BME280_temperature;BME280_humidity;BME280_pressure;Samples;Min_cycle;Max_cycle;Signal;HPM_P1;HPM_P2
2022/08/27 00:01:16;;;;;;;4.77;3.77;;;23.30;79.10;23.70;96211.00;;;;5092538;28;20203;-89
2022/08/27 00:03:44;;;;;;;4.40;3.80;;;23.20;79.40;23.70;96207.00;;;;5073021;28;20240;-88
2022/08/27 00:06:14;;;;;;;8.57;3.50;;;23.20;79.70;23.70;96211.00;;;;5072306;28;20196;-90
2022/08/27 00:08:42;;;;;;;3.83;3.50;;;23.20;80.10;23.60;96207.00;;;;5072761;28;20622;-89
2022/08/27 00:11:12;;;;;;;4.03;3.63;;;23.20;80.50;23.60;96209.00;;;;5072349;28;20220;-89
2022/08/27 00:13:41;;;;;;;6.53;4.23;;;23.10;81.10;23.50;96187.00;;;;5072724;28;20196;-90
2022/08/27 00:16:12;;;;;;;5.63;4.53;;;23.10;81.50;23.50;96190.00;;;;5072136;28;20612;-90
2022/08/27 00:18:41;;;;;;;4.50;4.10;;;23.00;81.90;23.40;96188.00;;;;5071960;28;20203;-90
2022/08/27 00:21:10;;;;;;;4.67;3.63;;;23.00;82.10;23.40;96190.00;;;;5072001;28;20250;-90
2022/08/27 00:23:38;;;;;;;3.87;3.50;;;23.00;82.40;23.30;96189.00;;;;5072677;28;20615;-90
2022/08/27 00:26:07;;;;;;;4.17;3.60;;;22.90;82.50;23.30;96188.00;;;;5072574;28;20580;-91
2022/08/27 00:28:36;;;;;;;4.00;3.50;;;22.90;82.90;23.30;96177.00;;;;5072312;28;20203;-92
2022/08/27 00:31:04;;;;;;;3.60;3.30;;;22.90;83.20;23.30;96177.00;;;;5072564;28;20289;-91
2022/08/27 00:33:31;;;;;;;5.57;3.67;;;22.90;83.50;23.30;96164.00;;;;5072524;28;20199;-91
2022/08/27 00:35:59;;;;;;;3.97;3.63;;;22.80;83.70;23.30;96179.00;;;;5072589;28;20726;-90
2022/08/27 00:38:27;;;;;;;3.67;3.37;;;22.80;83.90;23.30;96172.00;;;;5072088;28;20587;-92
2022/08/27 00:40:55;;;;;;;4.30;3.80;;;22.80;84.20;23.30;96176.00;;;;5072707;28;20623;-91
2022/08/27 00:43:25;;;;;;;4.03;3.63;;;22.80;84.30;23.30;96176.00;;;;5072392;28;20200;-90
2022/08/27 00:46:01;;;;;;;5.33;3.80;;;22.80;84.20;23.30;96184.00;;;;5071925;28;20204;-90
2022/08/27 00:48:34;;;;;;;6.17;3.80;;;22.80;84.40;23.30;96178.00;;;;5072302;28;20602;-91
2022/08/27 00:51:05;;;;;;;4.10;3.80;;;22.80;84.60;23.40;96182.00;;;;5072116;28;20200;-91
2022/08/27 00:53:34;;;;;;;4.47;4.07;;;22.80;84.70;23.40;96172.00;;;;5072241;28;20199;-90
2022/08/27 00:56:10;;;;;;;4.27;3.73;;;22.80;84.90;23.40;96179.00;;;;5072037;28;20294;-91
2022/08/27 00:58:42;;;;;;;3.80;3.47;;;22.80;85.20;23.40;96177.00;;;;5072113;28;20195;-91
2022/08/27 01:01:15;;;;;;;4.50;4.10;;;22.80;85.00;23.40;96184.00;;;;5071733;28;20253;-91
2022/08/27 01:03:47;;;;;;;3.67;3.37;;;22.80;85.30;23.40;96182.00;;;;5092124;28;20199;-90
2022/08/27 01:06:18;;;;;;;4.17;3.83;;;22.90;85.30;23.40;96174.00;;;;5092150;28;20203;-91
2022/08/27 01:08:52;;;;;;;4.30;3.90;;;22.80;85.30;23.40;96170.00;;;;5092222;28;20225;-90
2022/08/27 01:11:20;;;;;;;4.13;3.83;;;22.80;85.30;23.40;96173.00;;;;5091650;28;20223;-91
2022/08/27 01:13:48;;;;;;;4.93;4.13;;;22.90;85.20;23.40;96166.00;;;;5071329;28;20696;-91
2022/08/27 01:16:22;;;;;;;4.70;4.30;;;22.80;85.20;23.40;96178.00;;;;5069791;28;20865;-90
2022/08/27 01:18:51;;;;;;;3.93;3.60;;;22.90;85.60;23.40;96173.00;;;;5070468;28;20183;-90
2022/08/27 01:21:34;;;;;;;3.90;3.70;;;22.80;85.30;23.40;96177.00;;;;5071680;28;20199;-90
2022/08/27 01:24:08;;;;;;;4.53;4.13;;;22.80;85.50;23.40;96178.00;;;;5071696;28;20230;-90
2022/08/27 01:26:37;;;;;;;4.93;3.90;;;22.80;85.50;23.40;96172.00;;;;5070938;28;20195;-90
2022/08/27 01:29:04;;;;;;;4.30;3.87;;;22.80;85.30;23.40;96187.00;;;;5071405;28;20715;-90
2022/08/27 01:31:31;;;;;;;4.73;4.33;;;22.80;85.10;23.40;96188.00;;;;5072343;28;20224;-90
2022/08/27 01:34:04;;;;;;;4.47;4.07;;;22.80;85.20;23.40;96197.00;;;;5091600;28;20234;-90
2022/08/27 01:36:32;;;;;;;4.73;4.33;;;22.80;85.20;23.30;96199.00;;;;5095616;28;20713;-90
2022/08/27 01:39:00;;;;;;;4.33;4.00;;;22.80;85.00;23.30;96195.00;;;;5095892;28;20215;-90
2022/08/27 01:41:27;;;;;;;4.93;4.33;;;22.80;85.10;23.30;96199.00;;;;5095543;28;20277;-90
2022/08/27 01:43:56;;;;;;;4.73;4.33;;;22.70;85.10;23.30;96204.00;;;;5095796;28;20207;-90
2022/08/27 01:46:27;;;;;;;5.23;4.80;;;22.70;85.00;23.30;96202.00;;;;5095341;28;20191;-91
2022/08/27 01:48:55;;;;;;;5.13;4.60;;;22.70;84.90;23.20;96198.00;;;;5095781;28;20623;-90
2022/08/27 01:51:22;;;;;;;5.23;4.70;;;22.70;84.80;23.20;96204.00;;;;5095190;28;20229;-90
2022/08/27 01:53:50;;;;;;;4.83;4.33;;;22.70;84.70;23.20;96192.00;;;;5095471;28;20203;-90
2022/08/27 01:56:17;;;;;;;5.13;4.73;;;22.70;84.80;23.20;96204.00;;;;5095068;28;20206;-90
2022/08/27 01:58:45;;;;;;;4.97;4.57;;;22.60;84.90;23.10;96203.00;;;;5095058;28;20191;-88
2022/08/27 02:01:16;;;;;;;5.63;4.83;;;22.60;85.00;23.10;96197.00;;;;5095023;28;20199;-90
2022/08/27 02:03:46;;;;;;;5.73;5.13;;;22.60;85.20;23.10;96199.00;;;;5095257;28;20183;-90
2022/08/27 02:06:14;;;;;;;7.10;5.13;;;22.60;85.30;23.10;96201.00;;;;5095306;28;20195;-89
2022/08/27 02:08:42;;;;;;;5.93;5.00;;;22.60;85.40;23.10;96209.00;;;;5095052;28;20207;-90
2022/08/27 02:11:09;;;;;;;5.83;4.43;;;22.60;85.40;23.10;96208.00;;;;5108599;22;20304;-85
2022/08/27 02:13:38;;;;;;;6.60;5.40;;;22.60;85.50;23.10;96210.00;;;;5094855;28;20731;-85
2022/08/27 02:16:05;;;;;;;5.37;4.83;;;22.60;85.40;23.10;96213.00;;;;5094503;28;20207;-85
2022/08/27 02:18:37;;;;;;;7.10;4.83;;;22.50;85.30;23.10;96202.00;;;;5095208;28;20286;-84
2022/08/27 02:21:04;;;;;;;6.23;5.60;;;22.50;85.20;23.00;96207.00;;;;5062272;28;20652;-82
2022/08/27 02:23:32;;;;;;;5.03;4.63;;;22.50;85.10;23.10;96202.00;;;;5079927;28;20200;-82
2022/08/27 02:25:59;;;;;;;6.17;5.37;;;22.50;85.30;23.00;96205.00;;;;5074609;28;20212;-85
2022/08/27 02:28:26;;;;;;;6.17;4.93;;;22.50;85.40;23.00;96211.00;;;;5074888;28;20214;-85
2022/08/27 02:30:53;;;;;;;5.13;4.60;;;22.50;85.40;23.00;96214.00;;;;5074205;28;20267;-85
2022/08/27 02:33:21;;;;;;;5.67;5.07;;;22.50;85.50;23.00;96214.00;;;;5074428;28;20208;-85
2022/08/27 02:35:49;;;;;;;5.53;4.90;;;22.50;85.50;23.00;96215.00;;;;5073602;28;20253;-85
2022/08/27 02:38:16;;;;;;;5.43;4.93;;;22.50;85.50;23.00;96209.00;;;;5073963;28;20300;-85
2022/08/27 02:40:44;;;;;;;5.80;5.20;;;22.50;85.50;23.00;96208.00;;;;5073861;28;20232;-84
2022/08/27 02:43:11;;;;;;;6.63;5.43;;;22.50;85.50;23.00;96208.00;;;;5073753;28;20245;-86
2022/08/27 02:45:38;;;;;;;5.23;4.73;;;22.50;85.40;23.00;96209.00;;;;5072887;28;20635;-85
2022/08/27 02:48:07;;;;;;;5.43;4.90;;;22.50;85.50;23.00;96210.00;;;;5072771;28;20279;-85
2022/08/27 02:50:35;;;;;;;6.83;5.17;;;22.50;85.50;23.00;96218.00;;;;5073406;28;20231;-85
2022/08/27 02:53:06;;;;;;;5.33;4.83;;;22.50;85.50;23.00;96214.00;;;;5073303;28;20196;-85
2022/08/27 02:55:34;;;;;;;5.23;4.73;;;22.40;85.60;23.00;96218.00;;;;5072925;28;20207;-86
2022/08/27 02:58:02;;;;;;;4.77;4.37;;;22.40;85.40;22.90;96210.00;;;;5073058;28;20241;-86
2022/08/27 03:00:30;;;;;;;4.83;4.33;;;22.40;85.40;22.90;96212.00;;;;5073110;28;20220;-85
2022/08/27 03:02:57;;;;;;;5.33;4.83;;;22.40;85.40;22.90;96213.00;;;;5073158;28;20200;-86
2022/08/27 03:05:25;;;;;;;5.40;4.90;;;22.40;85.40;22.80;96216.00;;;;5072468;28;20203;-86
2022/08/27 03:07:52;;;;;;;5.50;4.97;;;22.40;85.40;22.90;96209.00;;;;5072551;28;20239;-85
2022/08/27 03:10:22;;;;;;;5.90;4.87;;;22.40;85.50;22.80;96199.00;;;;5072168;28;20220;-85
2022/08/27 03:12:50;;;;;;;6.37;4.60;;;22.40;85.70;22.90;96207.00;;;;5073345;28;20232;-86
2022/08/27 03:15:19;;;;;;;4.90;4.50;;;22.40;85.70;22.90;96193.00;;;;5072849;28;20253;-86
2022/08/27 03:20:32;;;;;;;4.97;4.57;;;22.40;85.80;22.90;96197.00;;;;5072646;28;20289;-85
2022/08/27 03:23:00;;;;;;;4.83;4.33;;;22.40;85.70;22.90;96195.00;;;;5072909;28;20210;-85
2022/08/27 03:25:29;;;;;;;6.50;4.70;;;22.40;85.80;22.90;96188.00;;;;5064625;28;20237;-85
2022/08/27 03:27:56;;;;;;;4.83;4.37;;;22.40;85.80;22.90;96196.00;;;;5071014;28;20226;-86
2022/08/27 03:30:24;;;;;;;5.00;4.60;;;22.40;85.80;22.90;96194.00;;;;5071197;28;20669;-85
2022/08/27 03:32:55;;;;;;;4.90;4.50;;;22.40;85.80;22.90;96191.00;;;;5071993;28;20284;-85
2022/08/27 03:35:23;;;;;;;4.57;4.17;;;22.40;85.70;22.90;96192.00;;;;5072868;28;20219;-85
2022/08/27 03:37:50;;;;;;;5.33;4.77;;;22.40;85.60;22.90;96196.00;;;;5072624;28;20283;-85
2022/08/27 03:40:18;;;;;;;4.90;4.20;;;22.40;85.70;22.90;96194.00;;;;5071597;28;20220;-85
2022/08/27 03:42:47;;;;;;;4.70;4.20;;;22.40;85.70;22.90;96195.00;;;;5072388;28;20195;-85
2022/08/27 03:45:14;;;;;;;5.27;4.30;;;22.40;85.70;22.90;96187.00;;;;5072113;28;20303;-85
2022/08/27 03:47:42;;;;;;;5.53;4.80;;;22.40;85.60;22.90;96189.00;;;;5072181;28;20196;-87
2022/08/27 03:50:10;;;;;;;5.93;4.37;;;22.40;85.50;22.90;96195.00;;;;5072802;28;20762;-86
2022/08/27 03:52:38;;;;;;;4.73;4.23;;;22.40;85.50;22.90;96193.00;;;;5072166;28;20310;-85
2022/08/27 03:55:08;;;;;;;4.67;4.27;;;22.40;85.40;22.90;96188.00;;;;5072167;28;20228;-85
2022/08/27 03:57:36;;;;;;;4.97;4.50;;;22.40;85.40;22.90;96186.00;;;;5071928;28;20196;-83
2022/08/27 04:00:07;;;;;;;5.50;5.00;;;22.40;85.30;22.90;96179.00;;;;5071788;28;20386;-83
2022/08/27 04:02:34;;;;;;;5.57;4.97;;;22.40;85.40;22.80;96183.00;;;;5070020;28;20291;-82
2022/08/27 04:05:02;;;;;;;5.63;4.33;;;22.40;85.30;22.80;96187.00;;;;5058599;28;20704;-82
2022/08/27 04:07:29;;;;;;;4.83;4.33;;;22.40;85.30;22.80;96189.00;;;;5052239;28;20213;-83
2022/08/27 04:09:57;;;;;;;5.90;4.93;;;22.30;85.30;22.80;96187.00;;;;5067299;28;20692;-83
2022/08/27 04:12:25;;;;;;;4.80;4.40;;;22.30;85.20;22.80;96181.00;;;;5071577;28;20220;-83
2022/08/27 04:14:52;;;;;;;5.23;4.73;;;22.30;85.20;22.80;96192.00;;;;5072031;28;20196;-83
2022/08/27 04:17:21;;;;;;;5.30;4.83;;;22.30;85.40;22.80;96185.00;;;;5064491;28;20754;-83
2022/08/27 04:19:48;;;;;;;4.57;4.17;;;22.30;85.60;22.80;96183.00;;;;5071923;28;20211;-82
2022/08/27 04:22:15;;;;;;;4.93;4.53;;;22.30;85.70;22.80;96188.00;;;;5072433;28;20242;-83
2022/08/27 04:24:42;;;;;;;5.77;4.43;;;22.30;85.70;22.80;96192.00;;;;5071769;28;20200;-82
2022/08/27 04:27:10;;;;;;;4.93;4.53;;;22.30;85.70;22.80;96192.00;;;;5071364;28;20206;-83
2022/08/27 04:29:38;;;;;;;5.40;4.90;;;22.30;85.80;22.90;96197.00;;;;5072062;28;20228;-84
2022/08/27 04:32:05;;;;;;;5.17;4.67;;;22.30;85.90;22.90;96199.00;;;;5071367;28;20227;-83
2022/08/27 04:34:35;;;;;;;4.87;4.17;;;22.30;85.90;22.90;96202.00;;;;5071421;28;20610;-83
2022/08/27 04:37:04;;;;;;;5.23;4.73;;;22.30;85.90;22.90;96207.00;;;;5070377;28;20257;-83
2022/08/27 04:39:32;;;;;;;5.40;4.63;;;22.30;85.90;22.90;96202.00;;;;5071198;28;20211;-83
2022/08/27 04:42:00;;;;;;;4.83;4.43;;;22.30;86.00;22.90;96199.00;;;;5071522;28;20212;-85
2022/08/27 04:44:32;;;;;;;5.17;4.77;;;22.30;86.00;22.90;96197.00;;;;5071109;28;20203;-85
2022/08/27 04:47:02;;;;;;;5.57;4.57;;;22.40;86.20;23.00;96196.00;;;;5071217;28;20669;-84
2022/08/27 04:49:32;;;;;;;6.23;5.33;;;22.40;86.30;23.00;96195.00;;;;5071325;28;20231;-85
2022/08/27 04:52:01;;;;;;;5.97;4.97;;;22.40;86.30;23.00;96196.00;;;;5071075;28;20229;-86
2022/08/27 04:54:29;;;;;;;5.70;5.20;;;22.40;86.40;23.00;96197.00;;;;5070900;28;20196;-84
2022/08/27 04:56:56;;;;;;;6.10;5.30;;;22.40;86.40;23.00;96202.00;;;;5071753;28;20199;-85
2022/08/27 04:59:24;;;;;;;5.67;5.17;;;22.40;86.40;23.00;96201.00;;;;5073127;28;20619;-85
2022/08/27 05:01:51;;;;;;;5.93;5.33;;;22.40;86.40;23.00;96206.00;;;;5072869;28;20207;-85
2022/08/27 05:04:19;;;;;;;5.20;4.70;;;22.40;86.40;23.00;96208.00;;;;5072302;28;20200;-85
2022/08/27 05:06:48;;;;;;;6.07;5.47;;;22.50;86.50;23.00;96203.00;;;;5072332;28;20710;-86
2022/08/27 05:09:17;;;;;;;6.13;5.57;;;22.50;86.50;23.00;96208.00;;;;5071391;28;20310;-85
2022/08/27 05:11:45;;;;;;;5.83;5.33;;;22.50;86.50;23.10;96208.00;;;;5071491;28;20273;-85
2022/08/27 05:14:15;;;;;;;6.57;5.97;;;22.50;86.40;23.10;96202.00;;;;5071845;28;20208;-85
2022/08/27 05:16:52;;;;;;;5.83;5.33;;;22.50;86.50;23.10;96216.00;;;;5071885;28;20290;-85
2022/08/27 05:19:20;;;;;;;5.53;5.07;;;22.50;86.60;23.10;96217.00;;;;5073653;28;20241;-87
2022/08/27 05:21:50;;;;;;;5.77;5.27;;;22.50;86.50;23.10;96220.00;;;;5070735;28;20222;-86
2022/08/27 05:24:21;;;;;;;5.83;5.33;;;22.50;86.60;23.10;96214.00;;;;5070577;28;20710;-86
2022/08/27 05:26:49;;;;;;;5.93;5.33;;;22.60;86.70;23.20;96215.00;;;;5070650;28;20568;-85
2022/08/27 05:29:17;;;;;;;5.90;5.33;;;22.60;86.60;23.20;96211.00;;;;5070616;28;20226;-85
2022/08/27 05:31:47;;;;;;;6.10;5.40;;;22.60;86.60;23.20;96214.00;;;;5070467;28;20257;-85
2022/08/27 05:34:15;;;;;;;5.77;5.27;;;22.60;86.60;23.20;96211.00;;;;5071554;28;20204;-85
2022/08/27 05:36:43;;;;;;;7.73;5.33;;;22.60;86.70;23.30;96209.00;;;;5071940;28;20644;-85
2022/08/27 05:39:10;;;;;;;5.70;5.17;;;22.60;86.90;23.30;96210.00;;;;5071386;28;20220;-85
2022/08/27 05:41:39;;;;;;;5.43;4.93;;;22.60;86.90;23.40;96208.00;;;;5071536;28;20565;-85
2022/08/27 05:44:09;;;;;;;5.03;4.63;;;22.70;87.00;23.40;96209.00;;;;5071928;28;20706;-85
2022/08/27 05:46:39;;;;;;;6.00;5.40;;;22.70;87.00;23.40;96205.00;;;;5071760;28;20199;-85
2022/08/27 05:49:08;;;;;;;5.50;5.00;;;22.70;87.10;23.50;96208.00;;;;5071873;28;20719;-85
2022/08/27 05:51:45;;;;;;;6.93;5.20;;;22.80;87.10;23.50;96206.00;;;;5071704;28;20712;-85
2022/08/27 05:54:18;;;;;;;5.93;5.33;;;22.80;87.20;23.50;96211.00;;;;5070566;28;20188;-85
2022/08/27 05:56:48;;;;;;;6.90;5.23;;;22.80;87.30;23.60;96217.00;;;;5070699;28;20200;-85
2022/08/27 06:02:00;;;;;;;5.27;4.77;;;22.90;87.00;23.60;96205.00;;;;5070506;28;20733;-85
2022/08/27 06:04:27;;;;;;;5.30;4.87;;;22.90;87.00;23.70;96216.00;;;;5070254;28;20198;-83
2022/08/27 06:06:55;;;;;;;5.27;4.77;;;23.00;87.00;23.70;96209.00;;;;5069930;28;20208;-82
2022/08/27 06:09:27;;;;;;;5.90;5.20;;;23.00;86.80;23.70;96213.00;;;;5071359;28;20270;-82
2022/08/27 06:11:57;;;;;;;5.57;4.83;;;23.00;86.70;23.70;96212.00;;;;5071449;28;20226;-82
2022/08/27 06:14:26;;;;;;;7.07;4.93;;;23.00;86.70;23.70;96203.00;;;;5071879;28;20623;-82
2022/08/27 06:16:53;;;;;;;6.80;4.80;;;23.10;86.50;23.70;96206.00;;;;5070895;28;20202;-83
2022/08/27 06:19:21;;;;;;;5.77;5.27;;;23.10;86.30;23.70;96208.00;;;;5071638;28;20773;-83
2022/08/27 06:21:49;;;;;;;6.17;4.93;;;23.10;86.30;23.80;96212.00;;;;5074233;28;20199;-84
2022/08/27 06:24:17;;;;;;;7.30;4.90;;;23.10;86.40;23.80;96208.00;;;;5075109;28;20208;-84
2022/08/27 06:26:52;;;;;;;5.40;4.87;;;23.10;86.60;23.80;96214.00;;;;5075107;28;20207;-84
2022/08/27 06:29:22;;;;;;;5.67;5.17;;;23.10;86.70;23.90;96216.00;;;;5074137;28;20231;-85
2022/08/27 06:31:51;;;;;;;5.70;4.87;;;23.20;86.60;23.90;96214.00;;;;5074021;28;20705;-85
2022/08/27 06:34:18;;;;;;;5.03;4.53;;;23.20;86.20;23.90;96216.00;;;;5073707;28;20201;-84
2022/08/27 06:36:46;;;;;;;5.23;4.73;;;23.20;86.00;24.00;96213.00;;;;5074492;28;20239;-83
2022/08/27 06:39:14;;;;;;;6.60;4.43;;;23.20;85.90;24.00;96215.00;;;;5073577;28;20765;-83
2022/08/27 06:41:43;;;;;;;4.50;4.10;;;23.20;85.80;24.00;96219.00;;;;5074325;28;20204;-84
2022/08/27 06:44:11;;;;;;;5.50;5.00;;;23.30;85.90;24.00;96220.00;;;;5075112;28;20553;-84
2022/08/27 06:46:41;;;;;;;5.73;5.17;;;23.30;85.90;24.00;96220.00;;;;5075087;28;20203;-86
2022/08/27 06:49:09;;;;;;;5.60;5.13;;;23.30;85.50;24.00;96221.00;;;;5075205;28;20215;-85
2022/08/27 06:51:40;;;;;;;5.50;5.00;;;23.30;85.50;24.00;96221.00;;;;5074832;28;20307;-85
2022/08/27 06:54:11;;;;;;;5.53;5.00;;;23.30;85.50;24.00;96219.00;;;;5074884;28;20235;-84
2022/08/27 06:56:39;;;;;;;5.80;5.27;;;23.30;85.40;24.00;96223.00;;;;5074862;28;20197;-85
2022/08/27 06:59:11;;;;;;;5.77;5.07;;;23.30;85.30;24.00;96219.00;;;;5074777;28;20688;-85
2022/08/27 07:01:45;;;;;;;5.10;4.70;;;23.30;85.30;24.00;96221.00;;;;5074671;28;20221;-85
2022/08/27 07:04:19;;;;;;;5.57;5.10;;;23.30;85.40;24.00;96214.00;;;;5074288;28;20200;-85
2022/08/27 07:06:46;;;;;;;5.23;4.73;;;23.30;85.50;24.00;96219.00;;;;5073852;28;20241;-85
2022/08/27 07:09:14;;;;;;;5.37;4.60;;;23.30;85.60;24.10;96221.00;;;;5073684;28;20225;-84
2022/08/27 07:11:42;;;;;;;5.47;5.07;;;23.40;85.60;24.10;96222.00;;;;5072488;28;20250;-84
2022/08/27 07:14:10;;;;;;;5.13;4.53;;;23.40;85.60;24.10;96219.00;;;;5073237;28;20690;-85
2022/08/27 07:16:39;;;;;;;5.03;4.57;;;23.40;85.70;24.10;96228.00;;;;5072883;28;20207;-84
2022/08/27 07:19:06;;;;;;;5.10;4.70;;;23.40;85.20;24.10;96228.00;;;;5074076;28;20227;-85
2022/08/27 07:21:35;;;;;;;5.30;4.80;;;23.40;84.80;24.10;96230.00;;;;5073900;28;20204;-83
2022/08/27 07:24:05;;;;;;;5.47;4.97;;;23.40;84.90;24.10;96236.00;;;;5074325;28;20200;-82
2022/08/27 07:26:35;;;;;;;4.90;4.50;;;23.40;85.00;24.10;96233.00;;;;5074359;28;20243;-83
2022/08/27 07:29:04;;;;;;;5.07;4.60;;;23.40;84.90;24.10;96241.00;;;;5073665;28;20218;-82
2022/08/27 07:31:34;;;;;;;5.47;4.90;;;23.40;84.80;24.10;96239.00;;;;5073578;28;20200;-82
2022/08/27 07:34:03;;;;;;;6.13;5.53;;;23.40;84.90;24.10;96243.00;;;;5073111;28;20227;-83
2022/08/27 07:36:31;;;;;;;6.43;5.80;;;23.40;84.90;24.10;96240.00;;;;5073667;28;20209;-82
2022/08/27 07:38:58;;;;;;;8.47;5.60;;;23.40;84.80;24.10;96247.00;;;;5072720;28;20224;-82
2022/08/27 07:41:26;;;;;;;6.10;5.60;;;23.40;84.70;24.10;96244.00;;;;5072549;28;20257;-81
2022/08/27 07:46:37;;;;;;;6.03;5.47;;;23.40;84.80;24.10;96247.00;;;;5072310;28;20203;-82
2022/08/27 07:49:06;;;;;;;6.00;5.50;;;23.40;84.80;24.10;96243.00;;;;5072458;28;20634;-82
2022/08/27 07:51:36;;;;;;;5.60;5.10;;;23.40;84.90;24.10;96248.00;;;;5072640;28;20192;-82
2022/08/27 07:54:04;;;;;;;6.97;6.07;;;23.50;85.00;24.20;96247.00;;;;5073874;28;20196;-82
2022/08/27 07:56:31;;;;;;;6.50;5.57;;;23.40;84.90;24.20;96245.00;;;;5073381;28;20193;-83
2022/08/27 07:58:58;;;;;;;6.47;5.87;;;23.50;84.90;24.20;96250.00;;;;5073708;28;20765;-82
2022/08/27 08:01:26;;;;;;;5.80;5.13;;;23.50;85.00;24.20;96256.00;;;;5073561;28;20715;-82
2022/08/27 08:03:54;;;;;;;5.17;4.67;;;23.50;85.10;24.20;96252.00;;;;5073505;28;20216;-82
2022/08/27 08:06:23;;;;;;;5.53;5.00;;;23.50;85.10;24.30;96253.00;;;;5073134;28;20199;-82
2022/08/27 08:08:50;;;;;;;4.80;4.30;;;23.50;85.00;24.30;96251.00;;;;5073151;28;20194;-82
2022/08/27 08:11:19;;;;;;;5.50;5.00;;;23.60;85.70;24.30;96262.00;;;;5072551;28;20203;-82
2022/08/27 08:13:48;;;;;;;5.27;4.50;;;23.60;85.10;24.30;96267.00;;;;5105981;22;20562;-83
2022/08/27 08:16:16;;;;;;;5.40;4.60;;;23.60;85.20;24.40;96270.00;;;;5096981;28;20208;-82
2022/08/27 08:18:43;;;;;;;5.30;4.83;;;23.60;85.00;24.40;96265.00;;;;5098533;28;20615;-83
2022/08/27 08:21:14;;;;;;;5.03;4.53;;;23.60;84.80;24.40;96263.00;;;;5097588;28;20235;-83
2022/08/27 08:23:43;;;;;;;4.70;4.30;;;23.70;85.00;24.50;96277.00;;;;5096774;28;20618;-82
2022/08/27 08:26:12;;;;;;;5.17;4.43;;;23.70;85.00;24.50;96281.00;;;;5096210;28;20207;-83
2022/08/27 08:28:40;;;;;;;4.97;4.57;;;23.80;85.00;24.50;96282.00;;;;5095704;28;20607;-83
2022/08/27 08:31:08;;;;;;;4.83;4.43;;;23.80;84.90;24.50;96288.00;;;;5096980;28;20447;-83
2022/08/27 08:33:37;;;;;;;4.67;4.30;;;23.80;84.80;24.60;96283.00;;;;5097559;28;20239;-83
2022/08/27 08:36:08;;;;;;;4.50;4.10;;;23.80;84.90;24.60;96286.00;;;;5098497;28;20199;-83
2022/08/27 08:38:36;;;;;;;5.23;4.67;;;23.80;84.90;24.70;96292.00;;;;5098136;28;20186;-83
2022/08/27 08:41:19;;;;;;;4.63;4.20;;;23.90;84.90;24.70;96290.00;;;;5098630;28;20205;-83
2022/08/27 08:43:50;;;;;;;4.97;4.57;;;23.90;84.40;24.80;96299.00;;;;5096462;28;20217;-83
2022/08/27 08:46:30;;;;;;;4.73;4.43;;;23.90;84.50;24.80;96295.00;;;;5096671;28;20195;-83
2022/08/27 08:49:06;;;;;;;5.57;5.10;;;24.00;84.50;24.90;96299.00;;;;5097095;28;20248;-82
2022/08/27 08:51:41;;;;;;;5.03;4.57;;;24.00;84.60;24.90;96300.00;;;;5097740;28;20711;-83
2022/08/27 08:54:15;;;;;;;4.87;4.47;;;24.10;84.50;25.00;96297.00;;;;5094813;28;20579;-83
2022/08/27 08:56:55;;;;;;;4.57;4.00;;;24.10;84.60;25.00;96297.00;;;;5094006;28;20204;-83
2022/08/27 08:59:34;;;;;;;4.20;3.80;;;24.20;84.10;25.10;96306.00;;;;5099029;28;20218;-82
2022/08/27 09:02:02;;;;;;;4.40;4.07;;;24.20;83.70;25.10;96306.00;;;;5092997;28;20207;-83
2022/08/27 09:04:30;;;;;;;5.00;4.70;;;24.30;84.00;25.20;96300.00;;;;5086102;28;20608;-82
2022/08/27 09:07:07;;;;;;;4.67;4.27;;;24.30;83.90;25.20;96299.00;;;;5097959;28;20190;-82
2022/08/27 09:09:45;;;;;;;4.97;4.57;;;24.40;84.00;25.30;96300.00;;;;5098040;28;20230;-83
2022/08/27 09:12:18;;;;;;;4.60;4.00;;;24.40;84.00;25.40;96287.00;;;;5097703;28;20559;-83
2022/08/27 09:14:53;;;;;;;3.57;3.27;;;24.50;84.10;25.40;96297.00;;;;5097392;28;20555;-83
2022/08/27 09:17:21;;;;;;;3.90;3.60;;;24.50;83.50;25.50;96290.00;;;;5096967;28;20220;-83
2022/08/27 09:19:48;;;;;;;3.87;3.57;;;24.60;83.80;25.50;96287.00;;;;5098708;28;20210;-82
2022/08/27 09:22:43;;;;;;;3.43;3.20;;;24.60;83.70;25.60;96289.00;;;;5098822;28;20198;-82
2022/08/27 09:25:20;;;;;;;4.03;3.73;;;24.70;82.90;25.70;96289.00;;;;5098692;28;20199;-82
2022/08/27 09:27:56;;;;;;;3.63;3.43;;;24.80;82.30;25.80;96297.00;;;;5097381;28;20545;-82
2022/08/27 09:30:41;;;;;;;4.03;3.23;;;24.80;82.50;25.90;96298.00;;;;5097770;28;20557;-82
2022/08/27 09:33:10;;;;;;;3.37;3.07;;;24.90;82.20;25.90;96289.00;;;;5082538;28;20234;-82
2022/08/27 09:35:47;;;;;;;2.87;2.67;;;25.00;81.10;25.90;96298.00;;;;5076142;28;20200;-83
2022/08/27 09:38:27;;;;;;;2.97;2.77;;;25.00;80.20;26.00;96301.00;;;;5075144;28;20674;-82
2022/08/27 09:41:00;;;;;;;3.60;3.30;;;25.10;79.20;26.00;96300.00;;;;5078017;28;20224;-83
2022/08/27 09:43:30;;;;;;;3.20;2.90;;;25.10;79.70;26.00;96300.00;;;;5093654;28;20199;-84
2022/08/27 09:46:01;;;;;;;3.23;3.03;;;25.10;79.70;26.10;96299.00;;;;5097663;28;20615;-82
2022/08/27 09:48:32;;;;;;;3.20;2.97;;;25.10;79.60;26.10;96294.00;;;;5097750;28;20687;-82
2022/08/27 09:51:07;;;;;;;3.17;2.83;;;25.20;79.50;26.10;96295.00;;;;5098272;28;20322;-83
2022/08/27 09:53:44;;;;;;;3.33;3.13;;;25.20;79.40;26.20;96290.00;;;;5097405;28;20310;-81
2022/08/27 09:56:27;;;;;;;4.03;3.63;;;25.30;79.00;26.30;96281.00;;;;5099510;28;20183;-82
2022/08/27 09:59:03;;;;;;;3.30;3.00;;;25.30;79.40;26.50;96285.00;;;;5101435;28;20195;-82
2022/08/27 10:01:40;;;;;;;4.20;3.80;;;25.40;80.40;26.60;96287.00;;;;5099327;28;20226;-82
2022/08/27 10:04:16;;;;;;;3.60;3.30;;;25.50;80.10;26.70;96298.00;;;;5081430;28;20200;-82
2022/08/27 10:06:55;;;;;;;3.83;3.53;;;25.60;79.90;26.80;96295.00;;;;5081219;28;20249;-83
2022/08/27 10:09:37;;;;;;;3.20;3.00;;;25.70;80.60;26.90;96294.00;;;;5081722;28;20629;-82
2022/08/27 10:12:16;;;;;;;4.70;3.50;;;25.80;79.60;27.00;96288.00;;;;5081447;28;20196;-82
2022/08/27 10:14:51;;;;;;;4.67;3.03;;;25.90;79.50;27.00;96287.00;;;;5081410;28;20277;-81
2022/08/27 10:17:31;;;;;;;6.17;3.33;;;25.90;79.10;27.00;96291.00;;;;5081500;28;20198;-83
2022/08/27 10:20:11;;;;;;;5.97;3.43;;;26.00;78.70;27.00;96287.00;;;;5076269;28;20269;-81
2022/08/27 10:22:51;;;;;;;5.43;3.33;;;26.00;77.90;27.00;96278.00;;;;5076727;28;20253;-81
2022/08/27 10:25:37;;;;;;;3.20;3.00;;;26.00;77.20;27.00;96273.00;;;;5077018;28;20211;-81
2022/08/27 10:28:25;;;;;;;3.63;3.30;;;26.10;77.50;27.10;96270.00;;;;5076832;28;20200;-81
2022/08/27 10:31:21;;;;;;;3.60;3.30;;;26.10;78.90;27.20;96271.00;;;;5076255;28;20216;-81
2022/08/27 10:34:06;;;;;;;3.80;3.50;;;26.20;79.30;27.30;96267.00;;;;5076104;28;20634;-81
2022/08/27 10:36:58;;;;;;;3.57;3.30;;;26.30;78.40;27.30;96264.00;;;;5075596;28;20294;-81
2022/08/27 10:39:46;;;;;;;3.20;2.73;;;26.40;77.60;27.40;96269.00;;;;5077362;28;20254;-82
2022/08/27 10:42:28;;;;;;;4.07;3.10;;;26.40;77.60;27.50;96266.00;;;;5077428;28;20206;-82
2022/08/27 10:45:16;;;;;;;3.20;2.90;;;26.50;78.20;27.50;96265.00;;;;5076444;28;20200;-82
2022/08/27 10:48:06;;;;;;;2.87;2.57;;;26.60;78.10;27.60;96260.00;;;;5077656;28;20192;-82
2022/08/27 10:50:44;;;;;;;2.87;2.67;;;26.70;76.70;27.80;96267.00;;;;5077851;28;20527;-82
2022/08/27 10:53:23;;;;;;;3.27;2.80;;;26.80;78.30;27.90;96261.00;;;;5077720;28;20262;-82
2022/08/27 10:56:09;;;;;;;3.10;2.60;;;26.90;78.30;27.90;96268.00;;;;5075812;28;20571;-82
2022/08/27 10:58:55;;;;;;;3.20;3.00;;;26.90;76.70;28.00;96257.00;;;;5077698;28;20257;-82
2022/08/27 11:01:37;;;;;;;3.67;2.87;;;27.00;74.90;28.00;96262.00;;;;5078470;28;20574;-82
2022/08/27 11:04:13;;;;;;;3.23;2.93;;;27.10;75.20;28.10;96260.00;;;;5098032;28;20472;-82
2022/08/27 11:06:50;;;;;;;3.13;2.83;;;27.20;75.50;28.10;96256.00;;;;5096187;28;20233;-82
2022/08/27 11:09:25;;;;;;;2.90;2.70;;;27.20;75.70;28.10;96262.00;;;;5096615;28;20219;-82
2022/08/27 11:12:01;;;;;;;3.23;2.90;;;27.20;75.30;28.10;96255.00;;;;5096223;28;20651;-82
2022/08/27 11:14:37;;;;;;;2.90;2.70;;;27.20;74.40;28.10;96257.00;;;;5095824;28;20227;-82
2022/08/27 11:17:14;;;;;;;3.73;3.43;;;27.20;73.60;28.10;96257.00;;;;5095644;28;20266;-82
2022/08/27 11:20:07;;;;;;;3.50;3.03;;;27.20;73.60;28.00;96249.00;;;;5095804;28;20284;-82